createdAt,value
2019-01-06T00:00:17.713Z,1018.91
2019-01-06T00:01:17.702Z,1018.92
2019-01-06T00:02:17.692Z,1018.97
2019-01-06T00:03:17.677Z,1018.98
2019-01-06T00:04:17.678Z,1018.97
2019-01-06T00:05:17.655Z,1018.95
2019-01-06T00:06:17.643Z,1018.98
2019-01-06T00:07:17.647Z,1018.97
2019-01-06T00:08:17.628Z,1018.93
2019-01-06T00:09:17.612Z,1018.96
2019-01-06T00:10:17.609Z,1018.92
2019-01-06T00:11:17.591Z,1018.93
2019-01-06T00:12:17.595Z,1018.90
2019-01-06T00:13:17.576Z,1018.91
2019-01-06T00:14:17.558Z,1018.90
2019-01-06T00:15:17.549Z,1018.89
2019-01-06T00:16:17.546Z,1018.89
2019-01-06T00:17:17.539Z,1018.95
2019-01-06T00:18:17.517Z,1018.98
2019-01-06T00:19:17.511Z,1018.95
2019-01-06T00:20:17.500Z,1018.98
2019-01-06T00:21:17.488Z,1018.97
2019-01-06T00:22:17.516Z,1018.96
2019-01-06T00:23:17.462Z,1018.99
2019-01-06T00:24:17.458Z,1018.98
2019-01-06T00:25:17.447Z,1019.02
2019-01-06T00:26:17.430Z,1019.05
2019-01-06T00:27:17.421Z,1019.04
2019-01-06T00:28:17.424Z,1019.02
2019-01-06T00:29:17.398Z,1019.08
2019-01-06T00:30:17.389Z,1019.10
2019-01-06T00:31:17.379Z,1019.09
2019-01-06T00:32:17.368Z,1019.07
2019-01-06T00:33:17.406Z,1019.09
2019-01-06T00:34:17.352Z,1019.09
2019-01-06T00:35:24.968Z,1019.10
2019-01-06T00:36:17.327Z,1019.09
2019-01-06T00:37:17.316Z,1019.09
2019-01-06T00:38:17.310Z,1019.12
2019-01-06T00:39:17.330Z,1019.15
2019-01-06T00:40:17.289Z,1019.13
2019-01-06T00:41:17.272Z,1019.09
2019-01-06T00:42:17.263Z,1019.15
2019-01-06T00:43:17.258Z,1019.18
2019-01-06T00:44:25.181Z,1019.17
2019-01-06T00:45:24.397Z,1019.22
2019-01-06T00:46:17.262Z,1019.21
2019-01-06T00:47:17.210Z,1019.17
2019-01-06T00:48:17.206Z,1019.16
2019-01-06T00:49:17.189Z,1019.13
2019-01-06T00:50:17.179Z,1019.20
2019-01-06T00:51:17.167Z,1019.19
2019-01-06T00:52:17.169Z,1019.22
2019-01-06T00:53:17.150Z,1019.21
2019-01-06T00:54:17.143Z,1019.23
2019-01-06T00:55:17.128Z,1019.13
2019-01-06T00:56:17.155Z,1019.20
2019-01-06T00:57:17.105Z,1019.21
2019-01-06T00:58:17.093Z,1019.19
2019-01-06T00:59:17.084Z,1019.23
2019-01-06T01:00:17.081Z,1019.26
2019-01-06T01:01:17.063Z,1019.23
2019-01-06T01:02:17.062Z,1019.26
2019-01-06T01:03:17.047Z,1019.28
2019-01-06T01:04:17.035Z,1019.28
2019-01-06T01:05:17.030Z,1019.30
2019-01-06T01:06:17.016Z,1019.35
2019-01-06T01:07:17.007Z,1019.35
2019-01-06T01:08:17.002Z,1019.39
2019-01-06T01:09:16.985Z,1019.32
2019-01-06T01:10:16.973Z,1019.35
2019-01-06T01:11:16.964Z,1019.36
2019-01-06T01:12:16.962Z,1019.31
2019-01-06T01:13:16.936Z,1019.32
2019-01-06T01:14:16.931Z,1019.36
2019-01-06T01:15:16.920Z,1019.35
2019-01-06T01:16:16.905Z,1019.33
2019-01-06T01:17:16.905Z,1019.32
2019-01-06T01:18:16.886Z,1019.33
2019-01-06T01:19:16.873Z,1019.32
2019-01-06T01:20:16.868Z,1019.36
2019-01-06T01:21:16.851Z,1019.39
2019-01-06T01:22:16.855Z,1019.36
2019-01-06T01:23:16.832Z,1019.40
2019-01-06T01:24:16.831Z,1019.44
2019-01-06T01:25:16.823Z,1019.40
2019-01-06T01:26:16.806Z,1019.45
2019-01-06T01:27:16.813Z,1019.51
2019-01-06T01:28:16.784Z,1019.52
2019-01-06T01:29:16.781Z,1019.50
2019-01-06T01:30:16.757Z,1019.49
2019-01-06T01:31:16.747Z,1019.51
2019-01-06T01:32:16.736Z,1019.50
2019-01-06T01:33:16.743Z,1019.54
2019-01-06T01:34:16.715Z,1019.53
2019-01-06T01:35:16.710Z,1019.54
2019-01-06T01:36:16.699Z,1019.54
2019-01-06T01:37:16.719Z,1019.55
2019-01-06T01:38:16.677Z,1019.54
2019-01-06T01:39:16.668Z,1019.52
2019-01-06T01:40:16.652Z,1019.55
2019-01-06T01:41:16.643Z,1019.56
2019-01-06T01:42:16.632Z,1019.58
2019-01-06T01:43:16.632Z,1019.62
2019-01-06T01:44:16.652Z,1019.64
2019-01-06T01:45:16.606Z,1019.63
2019-01-06T01:46:16.597Z,1019.62
2019-01-06T01:47:16.579Z,1019.63
2019-01-06T01:48:16.568Z,1019.65
2019-01-06T01:49:16.563Z,1019.62
2019-01-06T01:50:16.562Z,1019.62
2019-01-06T01:51:16.540Z,1019.61
2019-01-06T01:52:16.528Z,1019.62
2019-01-06T01:53:16.520Z,1019.57
2019-01-06T01:54:16.510Z,1019.53
2019-01-06T01:55:16.506Z,1019.60
2019-01-06T01:56:16.485Z,1019.60
2019-01-06T01:57:16.478Z,1019.59
2019-01-06T01:58:16.471Z,1019.64
2019-01-06T01:59:16.456Z,1019.57
2019-01-06T02:00:16.450Z,1019.57
2019-01-06T02:01:16.441Z,1019.56
2019-01-06T02:02:16.423Z,1019.61
2019-01-06T02:03:16.443Z,1019.60
2019-01-06T02:04:16.399Z,1019.68
2019-01-06T02:05:16.393Z,1019.69
2019-01-06T02:06:16.377Z,1019.69
2019-01-06T02:07:16.372Z,1019.66
2019-01-06T02:08:16.361Z,1019.67
2019-01-06T02:09:16.356Z,1019.74
2019-01-06T02:10:16.340Z,1019.73
2019-01-06T02:11:16.339Z,1019.67
2019-01-06T02:12:16.320Z,1019.75
2019-01-06T02:13:16.305Z,1019.74
2019-01-06T02:14:16.345Z,1019.75
2019-01-06T02:15:16.287Z,1019.82
2019-01-06T02:16:16.276Z,1019.88
2019-01-06T02:17:16.268Z,1019.87
2019-01-06T02:18:16.255Z,1019.89
2019-01-06T02:19:16.244Z,1019.91
2019-01-06T02:20:16.241Z,1019.92
2019-01-06T02:21:16.218Z,1019.89
2019-01-06T02:22:16.215Z,1019.89
2019-01-06T02:23:16.205Z,1019.91
2019-01-06T02:24:16.194Z,1019.89
2019-01-06T02:25:16.175Z,1019.92
2019-01-06T02:26:16.171Z,1019.93
2019-01-06T02:27:16.168Z,1019.89
2019-01-06T02:28:16.145Z,1019.88
2019-01-06T02:29:16.134Z,1019.88
2019-01-06T02:30:16.163Z,1019.88
2019-01-06T02:31:16.119Z,1019.88
2019-01-06T02:32:16.113Z,1019.88
2019-01-06T02:33:16.096Z,1019.90
2019-01-06T02:34:16.086Z,1019.89
2019-01-06T02:35:16.076Z,1019.90
2019-01-06T02:36:16.066Z,1019.86
2019-01-06T02:37:16.054Z,1019.90
2019-01-06T02:38:16.044Z,1019.91
2019-01-06T02:39:16.044Z,1019.89
2019-01-06T02:40:16.017Z,1019.89
2019-01-06T02:41:16.013Z,1019.91
2019-01-06T02:42:16.017Z,1019.92
2019-01-06T02:43:15.990Z,1019.90
2019-01-06T02:44:15.975Z,1019.96
2019-01-06T02:45:15.968Z,1019.94
2019-01-06T02:46:15.960Z,1019.92
2019-01-06T02:47:15.976Z,1019.93
2019-01-06T02:48:15.936Z,1019.95
2019-01-06T02:49:15.927Z,1019.92
2019-01-06T02:50:15.910Z,1019.94
2019-01-06T02:51:15.905Z,1019.93
2019-01-06T02:52:15.896Z,1019.97
2019-01-06T02:53:15.894Z,1019.99
2019-01-06T02:54:15.876Z,1019.99
2019-01-06T02:55:15.862Z,1020.03
2019-01-06T02:56:15.853Z,1019.98
2019-01-06T02:57:15.911Z,1019.98
2019-01-06T02:58:15.836Z,1019.98
2019-01-06T02:59:15.818Z,1020.00
2019-01-06T03:00:15.816Z,1019.97
2019-01-06T03:01:15.804Z,1019.98
2019-01-06T03:02:15.796Z,1020.00
2019-01-06T03:03:15.800Z,1019.99
2019-01-06T03:04:15.891Z,1019.98
2019-01-06T03:05:15.756Z,1020.01
2019-01-06T03:06:15.746Z,1019.99
2019-01-06T03:07:15.734Z,1019.98
2019-01-06T03:08:15.719Z,1019.98
2019-01-06T03:09:15.825Z,1020.02
2019-01-06T03:10:15.733Z,1020.05
2019-01-06T03:11:15.689Z,1020.06
2019-01-06T03:12:15.676Z,1020.07
2019-01-06T03:13:15.673Z,1020.06
2019-01-06T03:14:15.657Z,1020.10
2019-01-06T03:15:15.647Z,1020.11
2019-01-06T03:16:15.662Z,1020.10
2019-01-06T03:17:15.629Z,1020.07
2019-01-06T03:18:15.614Z,1020.04
2019-01-06T03:19:15.607Z,1020.14
2019-01-06T03:20:15.595Z,1020.11
2019-01-06T03:21:15.587Z,1020.15
2019-01-06T03:22:15.589Z,1020.13
2019-01-06T03:23:15.566Z,1020.17
2019-01-06T03:24:15.553Z,1020.14
2019-01-06T03:25:15.539Z,1020.14
2019-01-06T03:26:15.533Z,1020.09
2019-01-06T03:27:15.519Z,1020.16
2019-01-06T03:28:15.528Z,1020.14
2019-01-06T03:29:15.496Z,1020.14
2019-01-06T03:30:15.488Z,1020.15
2019-01-06T03:31:15.484Z,1020.11
2019-01-06T03:32:15.471Z,1020.13
2019-01-06T03:33:15.457Z,1020.16
2019-01-06T03:34:15.450Z,1020.16
2019-01-06T03:35:15.437Z,1020.19
2019-01-06T03:36:15.434Z,1020.14
2019-01-06T03:37:15.419Z,1020.17
2019-01-06T03:38:15.404Z,1020.18
2019-01-06T03:39:15.395Z,1020.18
2019-01-06T03:40:15.387Z,1020.18
2019-01-06T03:41:15.408Z,1020.16
2019-01-06T03:42:15.359Z,1020.20
2019-01-06T03:43:15.347Z,1020.23
2019-01-06T03:44:15.343Z,1020.18
2019-01-06T03:45:15.333Z,1020.21
2019-01-06T03:46:15.321Z,1020.19
2019-01-06T03:47:15.319Z,1020.19
2019-01-06T03:48:15.300Z,1020.18
2019-01-06T03:49:15.284Z,1020.15
2019-01-06T03:50:15.278Z,1020.19
2019-01-06T03:51:15.269Z,1020.20
2019-01-06T03:52:15.259Z,1020.20
2019-01-06T03:53:15.242Z,1020.24
2019-01-06T03:54:15.245Z,1020.22
2019-01-06T03:55:15.222Z,1020.27
2019-01-06T03:56:15.216Z,1020.32
2019-01-06T03:57:15.203Z,1020.26
2019-01-06T03:58:15.187Z,1020.26
2019-01-06T03:59:15.209Z,1020.32
2019-01-06T04:00:15.172Z,1020.31
2019-01-06T04:01:15.156Z,1020.28
2019-01-06T04:02:15.150Z,1020.25
2019-01-06T04:03:15.145Z,1020.24
2019-01-06T04:04:15.131Z,1020.23
2019-01-06T04:05:15.122Z,1020.24
2019-01-06T04:06:15.114Z,1020.28
2019-01-06T04:07:15.098Z,1020.26
2019-01-06T04:08:15.099Z,1020.26
2019-01-06T04:09:15.074Z,1020.23
2019-01-06T04:10:15.062Z,1020.25
2019-01-06T04:11:15.583Z,1020.25
2019-01-06T04:12:15.076Z,1020.22
2019-01-06T04:13:15.035Z,1020.25
2019-01-06T04:14:15.028Z,1020.23
2019-01-06T04:15:15.018Z,1020.22
2019-01-06T04:16:15.001Z,1020.19
2019-01-06T04:17:14.990Z,1020.24
2019-01-06T04:18:14.987Z,1020.23
2019-01-06T04:19:14.973Z,1020.21
2019-01-06T04:20:14.963Z,1020.25
2019-01-06T04:21:14.952Z,1020.26
2019-01-06T04:22:14.943Z,1020.27
2019-01-06T04:23:14.942Z,1020.23
2019-01-06T04:24:14.924Z,1020.31
2019-01-06T04:25:14.904Z,1020.35
2019-01-06T04:26:14.904Z,1020.32
2019-01-06T04:27:14.888Z,1020.29
2019-01-06T04:28:14.879Z,1020.29
2019-01-06T04:29:14.865Z,1020.31
2019-01-06T04:30:14.888Z,1020.27
2019-01-06T04:31:14.848Z,1020.30
2019-01-06T04:32:14.836Z,1020.32
2019-01-06T04:33:14.828Z,1020.33
2019-01-06T04:34:14.813Z,1020.34
2019-01-06T04:35:14.801Z,1020.31
2019-01-06T04:36:14.799Z,1020.29
2019-01-06T04:37:14.779Z,1020.24
2019-01-06T04:38:14.781Z,1020.25
2019-01-06T04:39:14.759Z,1020.26
2019-01-06T04:40:14.750Z,1020.29
2019-01-06T04:41:14.776Z,1020.28
2019-01-06T04:42:14.732Z,1020.29
2019-01-06T04:43:14.714Z,1020.26
2019-01-06T04:44:14.710Z,1020.31
2019-01-06T04:45:14.699Z,1020.27
2019-01-06T04:46:14.685Z,1020.29
2019-01-06T04:47:14.681Z,1020.26
2019-01-06T04:48:14.671Z,1020.28
2019-01-06T04:49:14.663Z,1020.33
2019-01-06T04:50:14.650Z,1020.33
2019-01-06T04:51:14.631Z,1020.30
2019-01-06T04:52:14.639Z,1020.30
2019-01-06T04:53:14.623Z,1020.26
2019-01-06T04:54:14.607Z,1020.26
2019-01-06T04:55:14.590Z,1020.31
2019-01-06T04:56:14.585Z,1020.29
2019-01-06T04:57:14.573Z,1020.33
2019-01-06T04:58:14.696Z,1020.33
2019-01-06T04:59:14.552Z,1020.32
2019-01-06T05:00:14.535Z,1020.31
2019-01-06T05:01:14.532Z,1020.31
2019-01-06T05:02:14.517Z,1020.34
2019-01-06T05:03:15.876Z,1020.37
2019-01-06T05:04:14.502Z,1020.33
2019-01-06T05:05:14.488Z,1020.33
2019-01-06T05:06:14.480Z,1020.36
2019-01-06T05:07:14.474Z,1020.33
2019-01-06T05:08:14.453Z,1020.37
2019-01-06T05:09:14.456Z,1020.39
2019-01-06T05:10:14.434Z,1020.41
2019-01-06T05:11:14.421Z,1020.40
2019-01-06T05:12:14.411Z,1020.46
2019-01-06T05:13:14.404Z,1020.44
2019-01-06T05:14:14.399Z,1020.46
2019-01-06T05:15:14.378Z,1020.46
2019-01-06T05:16:14.373Z,1020.44
2019-01-06T05:17:14.360Z,1020.45
2019-01-06T05:18:14.353Z,1020.45
2019-01-06T05:19:14.369Z,1020.45
2019-01-06T05:20:14.326Z,1020.39
2019-01-06T05:21:14.322Z,1020.40
2019-01-06T05:22:14.315Z,1020.45
2019-01-06T05:23:14.303Z,1020.49
2019-01-06T05:24:14.285Z,1020.47
2019-01-06T05:25:14.303Z,1020.45
2019-01-06T05:26:14.265Z,1020.45
2019-01-06T05:27:14.255Z,1020.47
2019-01-06T05:28:14.249Z,1020.42
2019-01-06T05:29:14.235Z,1020.38
2019-01-06T05:30:14.236Z,1020.43
2019-01-06T05:31:14.226Z,1020.42
2019-01-06T05:32:14.205Z,1020.44
2019-01-06T05:33:14.191Z,1020.44
2019-01-06T05:34:14.184Z,1020.48
2019-01-06T05:35:14.168Z,1020.47
2019-01-06T05:36:14.171Z,1020.54
2019-01-06T05:37:14.159Z,1020.58
2019-01-06T05:38:14.141Z,1020.52
2019-01-06T05:39:14.127Z,1020.50
2019-01-06T05:40:14.120Z,1020.54
2019-01-06T05:41:14.112Z,1020.61
2019-01-06T05:42:14.097Z,1020.66
2019-01-06T05:43:14.085Z,1020.61
2019-01-06T05:44:14.073Z,1020.65
2019-01-06T05:45:14.068Z,1020.63
2019-01-06T05:46:14.154Z,1020.71
2019-01-06T05:47:14.043Z,1020.70
2019-01-06T05:48:14.035Z,1020.75
2019-01-06T05:49:14.026Z,1020.83
2019-01-06T05:50:14.013Z,1020.83
2019-01-06T05:51:14.010Z,1020.84
2019-01-06T05:52:13.992Z,1020.76
2019-01-06T05:53:13.984Z,1020.80
2019-01-06T05:54:13.979Z,1020.78
2019-01-06T05:55:13.965Z,1020.80
2019-01-06T05:56:13.959Z,1020.84
2019-01-06T05:57:13.940Z,1020.90
2019-01-06T05:58:13.925Z,1020.98
2019-01-06T05:59:13.915Z,1020.95
2019-01-06T06:00:13.913Z,1020.98
2019-01-06T06:01:13.903Z,1020.98
2019-01-06T06:02:13.891Z,1021.00
2019-01-06T06:03:13.879Z,1020.98
2019-01-06T06:04:13.870Z,1021.02
2019-01-06T06:05:13.851Z,1021.03
2019-01-06T06:06:13.839Z,1021.05
2019-01-06T06:07:13.838Z,1021.08
2019-01-06T06:08:13.818Z,1021.15
2019-01-06T06:09:13.807Z,1021.08
2019-01-06T06:10:13.801Z,1021.05
2019-01-06T06:11:13.785Z,1021.03
2019-01-06T06:12:13.812Z,1021.12
2019-01-06T06:13:13.767Z,1021.15
2019-01-06T06:14:13.754Z,1021.14
2019-01-06T06:15:13.743Z,1021.15
2019-01-06T06:16:13.739Z,1021.15
2019-01-06T06:17:13.728Z,1021.15
2019-01-06T06:18:13.760Z,1021.15
2019-01-06T06:19:13.701Z,1021.12
2019-01-06T06:20:13.690Z,1021.13
2019-01-06T06:21:13.682Z,1021.10
2019-01-06T06:22:13.669Z,1021.13
2019-01-06T06:23:13.678Z,1021.14
2019-01-06T06:24:13.692Z,1021.19
2019-01-06T06:25:13.648Z,1021.19
2019-01-06T06:26:13.632Z,1021.21
2019-01-06T06:27:13.616Z,1021.22
2019-01-06T06:28:13.605Z,1021.22
2019-01-06T06:29:13.602Z,1021.25
2019-01-06T06:30:13.594Z,1021.24
2019-01-06T06:31:13.580Z,1021.27
2019-01-06T06:32:13.569Z,1021.25
2019-01-06T06:33:13.581Z,1021.32
2019-01-06T06:34:13.548Z,1021.28
2019-01-06T06:35:13.533Z,1021.25
2019-01-06T06:36:13.519Z,1021.29
2019-01-06T06:37:13.515Z,1021.26
2019-01-06T06:38:13.500Z,1021.31
2019-01-06T06:39:13.506Z,1021.33
2019-01-06T06:40:13.495Z,1021.35
2019-01-06T06:41:13.472Z,1021.36
2019-01-06T06:42:13.472Z,1021.38
2019-01-06T06:43:13.461Z,1021.34
2019-01-06T06:44:13.447Z,1021.43
2019-01-06T06:45:13.431Z,1021.48
2019-01-06T06:46:13.420Z,1021.44
2019-01-06T06:47:13.409Z,1021.43
2019-01-06T06:48:13.399Z,1021.40
2019-01-06T06:49:13.394Z,1021.38
2019-01-06T06:50:13.382Z,1021.42
2019-01-06T06:51:13.367Z,1021.39
2019-01-06T06:52:13.351Z,1021.41
2019-01-06T06:53:13.343Z,1021.46
2019-01-06T06:54:13.355Z,1021.51
2019-01-06T06:55:13.320Z,1021.45
2019-01-06T06:56:13.310Z,1021.46
2019-01-06T06:57:13.303Z,1021.47
2019-01-06T06:58:13.290Z,1021.46
2019-01-06T06:59:13.277Z,1021.51
2019-01-06T07:00:13.278Z,1021.51
2019-01-06T07:01:13.261Z,1021.50
2019-01-06T07:02:13.252Z,1021.53
2019-01-06T07:03:13.238Z,1021.47
2019-01-06T07:04:13.227Z,1021.49
2019-01-06T07:05:13.232Z,1021.54
2019-01-06T07:06:13.265Z,1021.54
2019-01-06T07:07:13.194Z,1021.52
2019-01-06T07:08:13.182Z,1021.56
2019-01-06T07:09:13.179Z,1021.55
2019-01-06T07:10:13.161Z,1021.56
2019-01-06T07:11:13.150Z,1021.52
2019-01-06T07:12:13.149Z,1021.57
2019-01-06T07:13:13.128Z,1021.55
2019-01-06T07:14:13.123Z,1021.59
2019-01-06T07:15:13.114Z,1021.62
2019-01-06T07:16:13.108Z,1021.61
2019-01-06T07:17:13.098Z,1021.62
2019-01-06T07:18:13.075Z,1021.63
2019-01-06T07:19:13.076Z,1021.66
2019-01-06T07:20:13.057Z,1021.67
2019-01-06T07:21:13.044Z,1021.69
2019-01-06T07:22:13.039Z,1021.66
2019-01-06T07:23:13.083Z,1021.66
2019-01-06T07:24:13.020Z,1021.69
2019-01-06T07:25:13.002Z,1021.70
2019-01-06T07:26:12.996Z,1021.76
2019-01-06T07:27:12.981Z,1021.78
2019-01-06T07:28:12.980Z,1021.79
2019-01-06T07:29:12.997Z,1021.82
2019-01-06T07:30:12.950Z,1021.86
2019-01-06T07:31:12.940Z,1021.89
2019-01-06T07:32:12.928Z,1021.89
2019-01-06T07:33:12.924Z,1021.89
2019-01-06T07:34:12.907Z,1021.92
2019-01-06T07:35:12.907Z,1021.89
2019-01-06T07:36:12.905Z,1021.92
2019-01-06T07:37:12.881Z,1021.88
2019-01-06T07:38:12.867Z,1021.88
2019-01-06T07:39:12.856Z,1021.92
2019-01-06T07:40:12.845Z,1021.91
2019-01-06T07:41:12.898Z,1021.91
2019-01-06T07:42:12.823Z,1021.90
2019-01-06T07:43:12.817Z,1021.92
2019-01-06T07:44:12.807Z,1021.89
2019-01-06T07:45:12.795Z,1021.87
2019-01-06T07:46:12.780Z,1021.90
2019-01-06T07:47:12.784Z,1021.90
2019-01-06T07:48:12.765Z,1021.97
2019-01-06T07:49:12.749Z,1021.98
2019-01-06T07:50:12.746Z,1021.97
2019-01-06T07:51:12.816Z,1021.99
2019-01-06T07:52:12.722Z,1022.02
2019-01-06T07:53:12.713Z,1022.01
2019-01-06T07:54:12.704Z,1021.99
2019-01-06T07:55:12.698Z,1022.00
2019-01-06T07:56:12.678Z,1021.97
2019-01-06T07:57:12.670Z,1021.93
2019-01-06T07:58:12.656Z,1021.96
2019-01-06T07:59:12.649Z,1022.01
2019-01-06T08:00:15.407Z,1022.05
2019-01-06T08:01:12.625Z,1022.03
2019-01-06T08:02:12.612Z,1022.02
2019-01-06T08:03:12.602Z,1022.02
2019-01-06T08:04:12.599Z,1022.07
2019-01-06T08:05:12.581Z,1022.10
2019-01-06T08:06:12.581Z,1022.06
2019-01-06T08:07:12.560Z,1022.04
2019-01-06T08:08:12.556Z,1022.07
2019-01-06T08:09:12.543Z,1022.06
2019-01-06T08:10:12.534Z,1022.09
2019-01-06T08:11:12.527Z,1022.07
2019-01-06T08:12:12.506Z,1022.10
2019-01-06T08:13:12.496Z,1022.05
2019-01-06T08:14:12.498Z,1022.01
2019-01-06T08:15:12.479Z,1022.05
2019-01-06T08:16:12.493Z,1022.07
2019-01-06T08:17:12.462Z,1022.05
2019-01-06T08:18:12.454Z,1022.06
2019-01-06T08:19:12.435Z,1022.07
2019-01-06T08:20:12.458Z,1022.10
2019-01-06T08:21:12.414Z,1022.11
2019-01-06T08:22:12.407Z,1022.08
2019-01-06T08:23:12.396Z,1022.11
2019-01-06T08:24:12.381Z,1022.13
2019-01-06T08:25:12.370Z,1022.13
2019-01-06T08:26:12.399Z,1022.15
2019-01-06T08:27:12.353Z,1022.22
2019-01-06T08:28:12.343Z,1022.21
2019-01-06T08:29:12.334Z,1022.23
2019-01-06T08:30:12.320Z,1022.25
2019-01-06T08:31:12.310Z,1022.23
2019-01-06T08:32:12.309Z,1022.24
2019-01-06T08:33:12.287Z,1022.18
2019-01-06T08:34:12.279Z,1022.23
2019-01-06T08:35:12.271Z,1022.21
2019-01-06T08:36:12.254Z,1022.26
2019-01-06T08:37:12.330Z,1022.24
2019-01-06T08:38:12.245Z,1022.26
2019-01-06T08:39:12.223Z,1022.27
2019-01-06T08:40:12.211Z,1022.24
2019-01-06T08:41:12.202Z,1022.27
2019-01-06T08:42:12.190Z,1022.22
2019-01-06T08:43:12.210Z,1022.22
2019-01-06T08:44:12.168Z,1022.26
2019-01-06T08:45:12.158Z,1022.30
2019-01-06T08:46:12.148Z,1022.31
2019-01-06T08:47:12.142Z,1022.32
2019-01-06T08:48:12.130Z,1022.39
2019-01-06T08:49:12.171Z,1022.39
2019-01-06T08:50:12.105Z,1022.34
2019-01-06T08:51:12.094Z,1022.39
2019-01-06T08:52:12.088Z,1022.37
2019-01-06T08:53:12.074Z,1022.41
2019-01-06T08:54:12.062Z,1022.37
2019-01-06T08:55:12.065Z,1022.34
2019-01-06T08:56:12.041Z,1022.35
2019-01-06T08:57:12.029Z,1022.37
2019-01-06T08:58:12.027Z,1022.40
2019-01-06T08:59:12.011Z,1022.44
2019-01-06T09:00:12.010Z,1022.45
2019-01-06T09:01:11.993Z,1022.46
2019-01-06T09:02:11.984Z,1022.50
2019-01-06T09:03:11.968Z,1022.47
2019-01-06T09:04:11.958Z,1022.48
2019-01-06T09:05:11.987Z,1022.47
2019-01-06T09:06:11.940Z,1022.45
2019-01-06T09:07:11.923Z,1022.46
2019-01-06T09:08:11.920Z,1022.41
2019-01-06T09:09:11.908Z,1022.44
2019-01-06T09:10:11.900Z,1022.40
2019-01-06T09:11:11.891Z,1022.39
2019-01-06T09:12:11.880Z,1022.43
2019-01-06T09:13:11.861Z,1022.43
2019-01-06T09:14:11.859Z,1022.43
2019-01-06T09:15:11.846Z,1022.43
2019-01-06T09:16:11.839Z,1022.42
2019-01-06T09:17:11.826Z,1022.44
2019-01-06T09:18:11.811Z,1022.43
2019-01-06T09:19:11.800Z,1022.44
2019-01-06T09:20:11.793Z,1022.42
2019-01-06T09:21:11.795Z,1022.43
2019-01-06T09:22:11.788Z,1022.45
2019-01-06T09:23:11.757Z,1022.47
2019-01-06T09:24:11.751Z,1022.47
2019-01-06T09:25:11.742Z,1022.48
2019-01-06T09:26:11.731Z,1022.49
2019-01-06T09:27:11.729Z,1022.46
2019-01-06T09:28:11.711Z,1022.46
2019-01-06T09:29:11.699Z,1022.44
2019-01-06T09:30:11.689Z,1022.45
2019-01-06T09:31:11.675Z,1022.37
2019-01-06T09:32:11.673Z,1022.39
2019-01-06T09:33:11.662Z,1022.40
2019-01-06T09:34:11.647Z,1022.32
2019-01-06T09:35:11.782Z,1022.29
2019-01-06T09:36:11.621Z,1022.32
2019-01-06T09:37:11.611Z,1022.38
2019-01-06T09:38:11.605Z,1022.32
2019-01-06T09:39:11.600Z,1022.39
2019-01-06T09:40:11.584Z,1022.36
2019-01-06T09:41:11.573Z,1022.34
2019-01-06T09:42:11.559Z,1022.35
2019-01-06T09:43:11.552Z,1022.35
2019-01-06T09:44:11.545Z,1022.40
2019-01-06T09:45:11.535Z,1022.43
2019-01-06T09:46:11.520Z,1022.39
2019-01-06T09:47:11.512Z,1022.38
2019-01-06T09:48:11.494Z,1022.40
2019-01-06T09:49:11.497Z,1022.44
2019-01-06T09:50:11.479Z,1022.46
2019-01-06T09:51:11.464Z,1022.46
2019-01-06T09:52:11.491Z,1022.46
2019-01-06T09:53:11.442Z,1022.45
2019-01-06T09:54:11.430Z,1022.45
2019-01-06T09:55:11.421Z,1022.45
2019-01-06T09:56:11.411Z,1022.44
2019-01-06T09:57:12.111Z,1022.46
2019-01-06T09:58:11.405Z,1022.46
2019-01-06T09:59:11.382Z,1022.36
2019-01-06T10:00:11.374Z,1022.36
2019-01-06T10:01:11.355Z,1022.36
2019-01-06T10:02:11.348Z,1022.36
2019-01-06T10:03:11.342Z,1022.36
2019-01-06T10:04:11.326Z,1022.38
2019-01-06T10:05:11.325Z,1022.39
2019-01-06T10:06:11.308Z,1022.39
2019-01-06T10:07:11.300Z,1022.42
2019-01-06T10:08:11.288Z,1022.41
2019-01-06T10:09:11.275Z,1022.41
2019-01-06T10:10:11.271Z,1022.37
2019-01-06T10:11:11.249Z,1022.32
2019-01-06T10:12:11.245Z,1022.32
2019-01-06T10:13:11.227Z,1022.32
2019-01-06T10:14:11.215Z,1022.31
2019-01-06T10:15:11.221Z,1022.31
2019-01-06T10:16:11.197Z,1022.33
2019-01-06T10:17:11.188Z,1022.35
2019-01-06T10:18:11.182Z,1022.33
2019-01-06T10:19:11.163Z,1022.32
2019-01-06T10:20:11.163Z,1022.32
2019-01-06T10:21:11.160Z,1022.36
2019-01-06T10:22:11.135Z,1022.39
2019-01-06T10:23:11.125Z,1022.36
2019-01-06T10:24:11.112Z,1022.39
2019-01-06T10:25:11.100Z,1022.42
2019-01-06T10:26:11.102Z,1022.41
2019-01-06T10:27:11.083Z,1022.42
2019-01-06T10:28:11.074Z,1022.42
2019-01-06T10:29:11.062Z,1022.45
2019-01-06T10:30:11.045Z,1022.43
2019-01-06T10:31:11.077Z,1022.46
2019-01-06T10:32:11.039Z,1022.39
2019-01-06T10:33:11.019Z,1022.40
2019-01-06T10:34:11.005Z,1022.35
2019-01-06T10:35:10.999Z,1022.36
2019-01-06T10:36:10.985Z,1022.41
2019-01-06T10:37:11.003Z,1022.40
2019-01-06T10:38:10.965Z,1022.42
2019-01-06T10:39:10.949Z,1022.35
2019-01-06T10:40:10.936Z,1022.35
2019-01-06T10:41:10.931Z,1022.38
2019-01-06T10:42:10.921Z,1022.33
2019-01-06T10:43:11.021Z,1022.26
2019-01-06T10:44:10.897Z,1022.24
2019-01-06T10:45:10.883Z,1022.28
2019-01-06T10:46:10.878Z,1022.28
2019-01-06T10:47:10.863Z,1022.25
2019-01-06T10:48:10.861Z,1022.29
2019-01-06T10:49:10.841Z,1022.28
2019-01-06T10:50:10.840Z,1022.32
2019-01-06T10:51:10.827Z,1022.28
2019-01-06T10:52:10.824Z,1022.28
2019-01-06T10:53:10.799Z,1022.24
2019-01-06T10:54:10.828Z,1022.30
2019-01-06T10:55:10.788Z,1022.30
2019-01-06T10:56:10.766Z,1022.32
2019-01-06T10:57:11.936Z,1022.29
2019-01-06T10:58:10.747Z,1022.29
2019-01-06T10:59:10.740Z,1022.29
2019-01-06T11:00:10.733Z,1022.31
2019-01-06T11:01:10.713Z,1022.27
2019-01-06T11:02:10.707Z,1022.28
2019-01-06T11:03:10.696Z,1022.33
2019-01-06T11:04:10.686Z,1022.33
2019-01-06T11:05:10.684Z,1022.30
2019-01-06T11:06:10.660Z,1022.25
2019-01-06T11:07:10.663Z,1022.27
2019-01-06T11:08:10.645Z,1022.29
2019-01-06T11:09:10.632Z,1022.29
2019-01-06T11:10:10.661Z,1022.27
2019-01-06T11:11:10.606Z,1022.32
2019-01-06T11:12:10.598Z,1022.32
2019-01-06T11:13:10.593Z,1022.26
2019-01-06T11:14:10.575Z,1022.32
2019-01-06T11:15:10.565Z,1022.30
2019-01-06T11:16:10.563Z,1022.33
2019-01-06T11:17:10.543Z,1022.30
2019-01-06T11:18:10.534Z,1022.31
2019-01-06T11:19:10.522Z,1022.34
2019-01-06T11:20:10.516Z,1022.32
2019-01-06T11:21:10.511Z,1022.31
2019-01-06T11:22:10.497Z,1022.32
2019-01-06T11:23:10.488Z,1022.30
2019-01-06T11:24:10.471Z,1022.30
2019-01-06T11:25:10.463Z,1022.30
2019-01-06T11:26:10.508Z,1022.34
2019-01-06T11:27:10.442Z,1022.32
2019-01-06T11:28:13.007Z,1022.29
2019-01-06T11:29:10.417Z,1022.26
2019-01-06T11:30:10.406Z,1022.29
2019-01-06T11:31:10.394Z,1022.24
2019-01-06T11:32:10.404Z,1022.20
2019-01-06T11:33:10.379Z,1022.22
2019-01-06T11:34:10.363Z,1022.20
2019-01-06T11:35:10.359Z,1022.15
2019-01-06T11:36:10.355Z,1022.12
2019-01-06T11:37:10.339Z,1022.15
2019-01-06T11:38:10.321Z,1022.12
2019-01-06T11:39:10.316Z,1022.12
2019-01-06T11:40:10.303Z,1022.12
2019-01-06T11:41:10.294Z,1022.08
2019-01-06T11:42:10.322Z,1022.06
2019-01-06T11:43:10.267Z,1022.06
2019-01-06T11:44:10.260Z,1022.10
2019-01-06T11:45:10.254Z,1022.08
2019-01-06T11:46:10.235Z,1022.12
2019-01-06T11:47:10.231Z,1022.11
2019-01-06T11:48:10.225Z,1022.18
2019-01-06T11:49:10.217Z,1022.17
2019-01-06T11:50:10.194Z,1022.16
2019-01-06T11:51:10.183Z,1022.14
2019-01-06T11:52:10.177Z,1022.10
2019-01-06T11:53:10.170Z,1022.07
2019-01-06T11:54:10.158Z,1022.14
2019-01-06T11:55:10.145Z,1022.10
2019-01-06T11:56:10.136Z,1022.13
2019-01-06T11:57:10.125Z,1022.17
2019-01-06T11:58:10.125Z,1022.16
2019-01-06T11:59:10.104Z,1022.12
2019-01-06T12:00:10.090Z,1022.17
2019-01-06T12:01:10.081Z,1022.16
2019-01-06T12:02:10.066Z,1022.16
2019-01-06T12:03:10.056Z,1022.20
2019-01-06T12:04:10.053Z,1022.21
2019-01-06T12:05:10.043Z,1022.20